sensor_id;sensor_type;location;lat;lon;timestamp;temperature;humidity
20726;DHT22;10524;48.132;8.518;2023-05-24T00:01:16;11.10;99.90
20726;DHT22;10524;48.132;8.518;2023-05-24T00:03:50;11.10;99.90
20726;DHT22;10524;48.132;8.518;2023-05-24T00:06:17;11.10;99.90
20726;DHT22;10524;48.132;8.518;2023-05-24T00:08:43;11.10;99.90
20726;DHT22;10524;48.132;8.518;2023-05-24T00:11:09;11.10;99.90
20726;DHT22;10524;48.132;8.518;2023-05-24T00:13:36;11.10;99.90
20726;DHT22;10524;48.132;8.518;2023-05-24T00:16:02;11.10;99.90
20726;DHT22;10524;48.132;8.518;2023-05-24T00:18:28;11.10;99.90
20726;DHT22;10524;48.132;8.518;2023-05-24T00:20:57;11.10;99.90
20726;DHT22;10524;48.132;8.518;2023-05-24T00:23:23;11.10;99.90
20726;DHT22;10524;48.132;8.518;2023-05-24T00:25:50;11.10;99.90
20726;DHT22;10524;48.132;8.518;2023-05-24T00:28:16;11.10;99.90
20726;DHT22;10524;48.132;8.518;2023-05-24T00:30:42;11.00;99.90
20726;DHT22;10524;48.132;8.518;2023-05-24T00:33:08;11.00;99.90
20726;DHT22;10524;48.132;8.518;2023-05-24T00:35:33;11.00;99.90
20726;DHT22;10524;48.132;8.518;2023-05-24T00:37:59;11.00;99.90
20726;DHT22;10524;48.132;8.518;2023-05-24T00:40:25;11.00;99.90
20726;DHT22;10524;48.132;8.518;2023-05-24T00:42:51;10.90;99.90
20726;DHT22;10524;48.132;8.518;2023-05-24T00:45:16;10.90;99.90
20726;DHT22;10524;48.132;8.518;2023-05-24T00:47:43;10.90;99.90
20726;DHT22;10524;48.132;8.518;2023-05-24T00:50:10;10.90;99.90
20726;DHT22;10524;48.132;8.518;2023-05-24T00:52:38;10.90;99.90
20726;DHT22;10524;48.132;8.518;2023-05-24T00:55:05;10.90;99.90
20726;DHT22;10524;48.132;8.518;2023-05-24T00:57:31;10.90;99.90
20726;DHT22;10524;48.132;8.518;2023-05-24T00:59:58;10.90;99.90
20726;DHT22;10524;48.132;8.518;2023-05-24T01:02:24;10.90;99.90
20726;DHT22;10524;48.132;8.518;2023-05-24T01:04:50;10.80;99.90
20726;DHT22;10524;48.132;8.518;2023-05-24T01:07:34;10.80;99.90
20726;DHT22;10524;48.132;8.518;2023-05-24T01:10:05;10.70;99.90
20726;DHT22;10524;48.132;8.518;2023-05-24T01:18:19;10.70;99.90
20726;DHT22;10524;48.132;8.518;2023-05-24T01:21:15;10.70;99.90
20726;DHT22;10524;48.132;8.518;2023-05-24T01:26:58;10.70;99.90
20726;DHT22;10524;48.132;8.518;2023-05-24T01:29:28;10.70;99.90
20726;DHT22;10524;48.132;8.518;2023-05-24T01:31:54;10.60;99.90
20726;DHT22;10524;48.132;8.518;2023-05-24T01:34:20;10.60;99.90
20726;DHT22;10524;48.132;8.518;2023-05-24T01:36:46;10.60;99.90
20726;DHT22;10524;48.132;8.518;2023-05-24T01:39:12;10.60;99.90
20726;DHT22;10524;48.132;8.518;2023-05-24T01:44:30;10.60;99.90
20726;DHT22;10524;48.132;8.518;2023-05-24T01:49:43;10.60;99.90
20726;DHT22;10524;48.132;8.518;2023-05-24T01:52:21;10.60;99.90
20726;DHT22;10524;48.132;8.518;2023-05-24T01:54:50;10.60;99.90
20726;DHT22;10524;48.132;8.518;2023-05-24T01:57:18;10.50;99.90
20726;DHT22;10524;48.132;8.518;2023-05-24T01:59:44;10.50;99.90
20726;DHT22;10524;48.132;8.518;2023-05-24T02:02:11;10.50;99.90
20726;DHT22;10524;48.132;8.518;2023-05-24T02:04:37;10.50;99.90
20726;DHT22;10524;48.132;8.518;2023-05-24T02:07:02;10.50;99.90
20726;DHT22;10524;48.132;8.518;2023-05-24T02:09:28;10.50;99.90
20726;DHT22;10524;48.132;8.518;2023-05-24T02:11:54;10.50;99.90
20726;DHT22;10524;48.132;8.518;2023-05-24T02:14:19;10.40;99.90
20726;DHT22;10524;48.132;8.518;2023-05-24T02:16:45;10.40;99.90
20726;DHT22;10524;48.132;8.518;2023-05-24T02:19:12;10.40;99.90
20726;DHT22;10524;48.132;8.518;2023-05-24T02:21:38;10.30;99.90
20726;DHT22;10524;48.132;8.518;2023-05-24T02:24:04;10.30;99.90
20726;DHT22;10524;48.132;8.518;2023-05-24T02:26:32;10.30;99.90
20726;DHT22;10524;48.132;8.518;2023-05-24T02:28:57;10.30;99.90
20726;DHT22;10524;48.132;8.518;2023-05-24T02:31:23;10.30;99.90
20726;DHT22;10524;48.132;8.518;2023-05-24T02:33:55;10.20;99.90
20726;DHT22;10524;48.132;8.518;2023-05-24T02:36:22;10.20;99.90
20726;DHT22;10524;48.132;8.518;2023-05-24T02:38:51;10.20;99.90
20726;DHT22;10524;48.132;8.518;2023-05-24T02:41:17;10.20;99.90
20726;DHT22;10524;48.132;8.518;2023-05-24T02:43:44;10.20;99.90
20726;DHT22;10524;48.132;8.518;2023-05-24T02:46:10;10.20;99.90
20726;DHT22;10524;48.132;8.518;2023-05-24T02:48:36;10.10;99.90
20726;DHT22;10524;48.132;8.518;2023-05-24T02:51:02;10.10;99.90
20726;DHT22;10524;48.132;8.518;2023-05-24T02:53:31;10.10;99.90
20726;DHT22;10524;48.132;8.518;2023-05-24T02:55:57;10.20;99.90
20726;DHT22;10524;48.132;8.518;2023-05-24T02:58:23;10.20;99.90
20726;DHT22;10524;48.132;8.518;2023-05-24T03:00:49;10.20;99.90
20726;DHT22;10524;48.132;8.518;2023-05-24T03:03:15;10.10;99.90
20726;DHT22;10524;48.132;8.518;2023-05-24T03:05:41;10.20;99.90
20726;DHT22;10524;48.132;8.518;2023-05-24T03:08:07;10.10;99.90
20726;DHT22;10524;48.132;8.518;2023-05-24T03:10:33;10.10;99.90
20726;DHT22;10524;48.132;8.518;2023-05-24T03:12:58;10.10;99.90
20726;DHT22;10524;48.132;8.518;2023-05-24T03:15:24;10.00;99.90
20726;DHT22;10524;48.132;8.518;2023-05-24T03:17:50;10.00;99.90
20726;DHT22;10524;48.132;8.518;2023-05-24T03:20:17;10.00;99.90
20726;DHT22;10524;48.132;8.518;2023-05-24T03:22:42;10.00;99.90
20726;DHT22;10524;48.132;8.518;2023-05-24T03:25:08;10.00;99.90
20726;DHT22;10524;48.132;8.518;2023-05-24T03:27:35;10.00;99.90
20726;DHT22;10524;48.132;8.518;2023-05-24T03:30:01;9.90;99.90
20726;DHT22;10524;48.132;8.518;2023-05-24T03:32:27;9.90;99.90
20726;DHT22;10524;48.132;8.518;2023-05-24T03:34:52;9.80;99.90
20726;DHT22;10524;48.132;8.518;2023-05-24T03:37:19;9.80;99.90
20726;DHT22;10524;48.132;8.518;2023-05-24T03:39:44;9.80;99.90
20726;DHT22;10524;48.132;8.518;2023-05-24T03:42:10;9.70;99.90
20726;DHT22;10524;48.132;8.518;2023-05-24T03:44:37;9.70;99.90
20726;DHT22;10524;48.132;8.518;2023-05-24T03:47:03;9.70;99.90
20726;DHT22;10524;48.132;8.518;2023-05-24T03:49:29;9.70;99.90
20726;DHT22;10524;48.132;8.518;2023-05-24T03:51:54;9.70;99.90
20726;DHT22;10524;48.132;8.518;2023-05-24T03:54:20;9.70;99.90
20726;DHT22;10524;48.132;8.518;2023-05-24T03:56:45;9.60;99.90
20726;DHT22;10524;48.132;8.518;2023-05-24T03:59:11;9.60;99.90
20726;DHT22;10524;48.132;8.518;2023-05-24T04:01:38;9.60;99.90
20726;DHT22;10524;48.132;8.518;2023-05-24T04:04:04;9.60;99.90
20726;DHT22;10524;48.132;8.518;2023-05-24T04:06:29;9.50;99.90
20726;DHT22;10524;48.132;8.518;2023-05-24T04:08:56;9.40;99.90
20726;DHT22;10524;48.132;8.518;2023-05-24T04:11:22;9.40;99.90
20726;DHT22;10524;48.132;8.518;2023-05-24T04:13:48;9.40;99.90
20726;DHT22;10524;48.132;8.518;2023-05-24T04:16:17;9.40;99.90
20726;DHT22;10524;48.132;8.518;2023-05-24T04:18:42;9.40;99.90
20726;DHT22;10524;48.132;8.518;2023-05-24T04:21:12;9.40;99.90
20726;DHT22;10524;48.132;8.518;2023-05-24T04:23:38;9.30;99.90
20726;DHT22;10524;48.132;8.518;2023-05-24T04:26:04;9.30;99.90
20726;DHT22;10524;48.132;8.518;2023-05-24T04:28:30;9.30;99.90
20726;DHT22;10524;48.132;8.518;2023-05-24T04:30:56;9.30;99.90
20726;DHT22;10524;48.132;8.518;2023-05-24T04:33:22;9.30;99.90
20726;DHT22;10524;48.132;8.518;2023-05-24T04:35:47;9.30;99.90
20726;DHT22;10524;48.132;8.518;2023-05-24T04:38:13;9.30;99.90
20726;DHT22;10524;48.132;8.518;2023-05-24T04:40:39;9.30;99.90
20726;DHT22;10524;48.132;8.518;2023-05-24T04:43:04;9.30;99.90
20726;DHT22;10524;48.132;8.518;2023-05-24T04:45:32;9.30;99.90
20726;DHT22;10524;48.132;8.518;2023-05-24T04:47:58;9.40;99.90
20726;DHT22;10524;48.132;8.518;2023-05-24T04:50:24;9.40;99.90
20726;DHT22;10524;48.132;8.518;2023-05-24T04:52:50;9.40;99.90
20726;DHT22;10524;48.132;8.518;2023-05-24T04:55:15;9.40;99.90
20726;DHT22;10524;48.132;8.518;2023-05-24T04:57:41;9.50;99.90
20726;DHT22;10524;48.132;8.518;2023-05-24T05:00:08;9.50;99.90
20726;DHT22;10524;48.132;8.518;2023-05-24T05:02:34;9.50;99.90
20726;DHT22;10524;48.132;8.518;2023-05-24T05:05:00;9.40;99.90
20726;DHT22;10524;48.132;8.518;2023-05-24T05:07:26;9.40;99.90
20726;DHT22;10524;48.132;8.518;2023-05-24T05:09:51;9.60;99.90
20726;DHT22;10524;48.132;8.518;2023-05-24T05:12:17;9.60;99.90
20726;DHT22;10524;48.132;8.518;2023-05-24T05:14:43;9.70;99.90
20726;DHT22;10524;48.132;8.518;2023-05-24T05:17:09;9.80;99.90
20726;DHT22;10524;48.132;8.518;2023-05-24T05:19:34;10.00;99.90
20726;DHT22;10524;48.132;8.518;2023-05-24T05:22:00;10.10;99.90
20726;DHT22;10524;48.132;8.518;2023-05-24T05:24:26;10.20;99.90
20726;DHT22;10524;48.132;8.518;2023-05-24T05:26:51;10.40;99.90
20726;DHT22;10524;48.132;8.518;2023-05-24T05:29:17;10.30;99.90
20726;DHT22;10524;48.132;8.518;2023-05-24T05:31:43;10.20;99.90
20726;DHT22;10524;48.132;8.518;2023-05-24T05:34:08;10.10;99.90
20726;DHT22;10524;48.132;8.518;2023-05-24T05:36:36;10.10;99.90
20726;DHT22;10524;48.132;8.518;2023-05-24T05:39:06;10.10;99.90
20726;DHT22;10524;48.132;8.518;2023-05-24T05:41:37;10.10;99.90
20726;DHT22;10524;48.132;8.518;2023-05-24T05:44:04;10.00;99.90
20726;DHT22;10524;48.132;8.518;2023-05-24T05:46:30;9.80;99.90
20726;DHT22;10524;48.132;8.518;2023-05-24T05:48:56;9.70;99.90
20726;DHT22;10524;48.132;8.518;2023-05-24T05:51:21;9.60;99.90
20726;DHT22;10524;48.132;8.518;2023-05-24T05:53:47;9.60;99.90
20726;DHT22;10524;48.132;8.518;2023-05-24T05:56:12;9.70;99.90
20726;DHT22;10524;48.132;8.518;2023-05-24T05:58:38;9.80;99.90
20726;DHT22;10524;48.132;8.518;2023-05-24T06:01:04;10.00;99.90
20726;DHT22;10524;48.132;8.518;2023-05-24T06:03:29;10.10;99.90
20726;DHT22;10524;48.132;8.518;2023-05-24T06:05:55;10.20;99.90
20726;DHT22;10524;48.132;8.518;2023-05-24T06:08:21;10.20;99.90
20726;DHT22;10524;48.132;8.518;2023-05-24T06:10:46;10.30;99.90
20726;DHT22;10524;48.132;8.518;2023-05-24T06:13:12;10.50;99.90
20726;DHT22;10524;48.132;8.518;2023-05-24T06:15:38;10.60;99.90
20726;DHT22;10524;48.132;8.518;2023-05-24T06:18:05;10.70;99.90
20726;DHT22;10524;48.132;8.518;2023-05-24T06:20:30;10.90;99.90
20726;DHT22;10524;48.132;8.518;2023-05-24T06:22:56;10.90;99.90
20726;DHT22;10524;48.132;8.518;2023-05-24T06:25:22;10.80;99.90
20726;DHT22;10524;48.132;8.518;2023-05-24T06:27:49;10.50;99.90
20726;DHT22;10524;48.132;8.518;2023-05-24T06:30:16;10.40;99.90
20726;DHT22;10524;48.132;8.518;2023-05-24T06:32:42;10.50;99.90
20726;DHT22;10524;48.132;8.518;2023-05-24T06:35:08;10.30;99.90
20726;DHT22;10524;48.132;8.518;2023-05-24T06:37:34;10.30;99.90
20726;DHT22;10524;48.132;8.518;2023-05-24T06:40:00;10.40;99.90
20726;DHT22;10524;48.132;8.518;2023-05-24T06:42:26;10.50;99.90
20726;DHT22;10524;48.132;8.518;2023-05-24T06:44:51;10.50;99.90
20726;DHT22;10524;48.132;8.518;2023-05-24T06:47:17;10.40;99.90
20726;DHT22;10524;48.132;8.518;2023-05-24T06:49:43;10.60;99.90
20726;DHT22;10524;48.132;8.518;2023-05-24T06:52:08;10.70;99.90
20726;DHT22;10524;48.132;8.518;2023-05-24T06:54:34;10.80;99.90
20726;DHT22;10524;48.132;8.518;2023-05-24T06:57:00;11.00;99.90
20726;DHT22;10524;48.132;8.518;2023-05-24T06:59:28;10.90;99.90
20726;DHT22;10524;48.132;8.518;2023-05-24T07:01:54;10.80;99.90
20726;DHT22;10524;48.132;8.518;2023-05-24T07:04:24;10.70;99.90
20726;DHT22;10524;48.132;8.518;2023-05-24T07:06:51;10.60;99.90
20726;DHT22;10524;48.132;8.518;2023-05-24T07:09:17;10.40;99.90
20726;DHT22;10524;48.132;8.518;2023-05-24T07:11:43;10.40;99.90
20726;DHT22;10524;48.132;8.518;2023-05-24T07:14:09;10.50;99.90
20726;DHT22;10524;48.132;8.518;2023-05-24T07:16:35;10.70;99.90
20726;DHT22;10524;48.132;8.518;2023-05-24T07:19:01;10.80;99.90
20726;DHT22;10524;48.132;8.518;2023-05-24T07:21:27;10.90;99.90
20726;DHT22;10524;48.132;8.518;2023-05-24T07:23:52;11.10;99.90
20726;DHT22;10524;48.132;8.518;2023-05-24T07:26:18;11.40;99.90
20726;DHT22;10524;48.132;8.518;2023-05-24T07:28:44;11.20;99.90
20726;DHT22;10524;48.132;8.518;2023-05-24T07:31:10;11.40;99.90
20726;DHT22;10524;48.132;8.518;2023-05-24T07:33:36;11.40;99.90
20726;DHT22;10524;48.132;8.518;2023-05-24T07:36:03;11.40;99.90
20726;DHT22;10524;48.132;8.518;2023-05-24T07:38:29;11.30;99.90
20726;DHT22;10524;48.132;8.518;2023-05-24T07:40:58;11.20;99.90
20726;DHT22;10524;48.132;8.518;2023-05-24T07:43:24;11.00;99.90
20726;DHT22;10524;48.132;8.518;2023-05-24T07:45:51;11.10;99.90
20726;DHT22;10524;48.132;8.518;2023-05-24T07:48:18;11.20;99.90
20726;DHT22;10524;48.132;8.518;2023-05-24T07:50:44;11.10;99.90
20726;DHT22;10524;48.132;8.518;2023-05-24T07:53:16;11.40;99.90
20726;DHT22;10524;48.132;8.518;2023-05-24T07:55:42;11.60;99.90
20726;DHT22;10524;48.132;8.518;2023-05-24T07:58:09;11.90;99.90
20726;DHT22;10524;48.132;8.518;2023-05-24T08:00:35;11.80;99.90
20726;DHT22;10524;48.132;8.518;2023-05-24T08:03:01;12.00;99.90
20726;DHT22;10524;48.132;8.518;2023-05-24T08:05:27;12.10;99.90
20726;DHT22;10524;48.132;8.518;2023-05-24T08:07:53;12.20;99.90
20726;DHT22;10524;48.132;8.518;2023-05-24T08:10:19;12.30;99.90
20726;DHT22;10524;48.132;8.518;2023-05-24T08:12:45;12.50;99.90
20726;DHT22;10524;48.132;8.518;2023-05-24T08:15:10;12.30;99.90
20726;DHT22;10524;48.132;8.518;2023-05-24T08:17:39;12.20;99.90
20726;DHT22;10524;48.132;8.518;2023-05-24T08:20:06;12.30;99.90
20726;DHT22;10524;48.132;8.518;2023-05-24T08:22:36;12.50;99.90
20726;DHT22;10524;48.132;8.518;2023-05-24T08:25:02;12.50;99.90
20726;DHT22;10524;48.132;8.518;2023-05-24T08:27:28;12.70;99.90
20726;DHT22;10524;48.132;8.518;2023-05-24T08:29:54;12.40;99.90
20726;DHT22;10524;48.132;8.518;2023-05-24T08:32:20;12.30;99.90
20726;DHT22;10524;48.132;8.518;2023-05-24T08:34:46;12.40;99.90
20726;DHT22;10524;48.132;8.518;2023-05-24T08:37:12;12.50;99.90
20726;DHT22;10524;48.132;8.518;2023-05-24T08:39:39;12.70;99.90
20726;DHT22;10524;48.132;8.518;2023-05-24T08:42:06;12.80;99.90
20726;DHT22;10524;48.132;8.518;2023-05-24T08:44:37;12.70;99.90
20726;DHT22;10524;48.132;8.518;2023-05-24T08:47:06;12.50;99.90
20726;DHT22;10524;48.132;8.518;2023-05-24T08:49:32;12.40;99.90
20726;DHT22;10524;48.132;8.518;2023-05-24T08:52:01;12.40;99.90
20726;DHT22;10524;48.132;8.518;2023-05-24T08:54:28;12.30;99.90
20726;DHT22;10524;48.132;8.518;2023-05-24T08:56:54;12.40;99.90
20726;DHT22;10524;48.132;8.518;2023-05-24T08:59:21;12.30;99.90
20726;DHT22;10524;48.132;8.518;2023-05-24T09:01:52;12.30;99.90
20726;DHT22;10524;48.132;8.518;2023-05-24T09:04:21;12.00;99.90
20726;DHT22;10524;48.132;8.518;2023-05-24T09:06:48;11.90;99.90
20726;DHT22;10524;48.132;8.518;2023-05-24T09:09:17;11.90;99.90
20726;DHT22;10524;48.132;8.518;2023-05-24T09:11:44;11.80;99.90
20726;DHT22;10524;48.132;8.518;2023-05-24T09:14:12;12.10;99.90
20726;DHT22;10524;48.132;8.518;2023-05-24T09:16:38;12.30;99.90
20726;DHT22;10524;48.132;8.518;2023-05-24T09:19:04;12.60;99.90
20726;DHT22;10524;48.132;8.518;2023-05-24T09:21:30;12.90;99.90
20726;DHT22;10524;48.132;8.518;2023-05-24T09:23:57;12.40;99.90
20726;DHT22;10524;48.132;8.518;2023-05-24T09:26:23;12.20;99.90
20726;DHT22;10524;48.132;8.518;2023-05-24T09:28:54;11.80;99.90
20726;DHT22;10524;48.132;8.518;2023-05-24T09:31:34;11.60;99.90
20726;DHT22;10524;48.132;8.518;2023-05-24T09:34:00;11.60;99.90
20726;DHT22;10524;48.132;8.518;2023-05-24T09:36:27;11.70;99.90
20726;DHT22;10524;48.132;8.518;2023-05-24T09:39:10;11.60;99.90
20726;DHT22;10524;48.132;8.518;2023-05-24T09:41:37;11.50;99.90
20726;DHT22;10524;48.132;8.518;2023-05-24T09:44:03;11.70;99.90
20726;DHT22;10524;48.132;8.518;2023-05-24T09:46:35;11.80;99.90
20726;DHT22;10524;48.132;8.518;2023-05-24T09:49:02;11.50;99.90
20726;DHT22;10524;48.132;8.518;2023-05-24T09:51:28;11.00;99.90
20726;DHT22;10524;48.132;8.518;2023-05-24T09:54:00;11.10;99.90
20726;DHT22;10524;48.132;8.518;2023-05-24T09:56:26;11.50;99.90
20726;DHT22;10524;48.132;8.518;2023-05-24T09:58:52;11.70;99.90
20726;DHT22;10524;48.132;8.518;2023-05-24T10:01:23;11.20;99.90
20726;DHT22;10524;48.132;8.518;2023-05-24T10:03:53;10.90;99.90
20726;DHT22;10524;48.132;8.518;2023-05-24T10:06:20;10.80;99.90
20726;DHT22;10524;48.132;8.518;2023-05-24T10:08:47;10.90;99.90
20726;DHT22;10524;48.132;8.518;2023-05-24T10:11:19;11.20;99.90
20726;DHT22;10524;48.132;8.518;2023-05-24T10:13:47;11.30;99.90
20726;DHT22;10524;48.132;8.518;2023-05-24T10:16:13;11.50;99.90
20726;DHT22;10524;48.132;8.518;2023-05-24T10:18:38;11.70;99.90
20726;DHT22;10524;48.132;8.518;2023-05-24T10:21:05;12.00;99.90
20726;DHT22;10524;48.132;8.518;2023-05-24T10:23:33;11.90;99.90
20726;DHT22;10524;48.132;8.518;2023-05-24T10:26:05;12.10;99.90
20726;DHT22;10524;48.132;8.518;2023-05-24T10:28:37;12.70;99.90
20726;DHT22;10524;48.132;8.518;2023-05-24T10:31:10;13.30;99.90
20726;DHT22;10524;48.132;8.518;2023-05-24T10:33:38;13.70;99.90
20726;DHT22;10524;48.132;8.518;2023-05-24T10:36:06;13.70;99.90
20726;DHT22;10524;48.132;8.518;2023-05-24T10:38:34;13.50;99.90
20726;DHT22;10524;48.132;8.518;2023-05-24T10:41:01;13.50;99.90
20726;DHT22;10524;48.132;8.518;2023-05-24T10:43:28;13.30;99.90
20726;DHT22;10524;48.132;8.518;2023-05-24T10:45:53;13.10;99.90
20726;DHT22;10524;48.132;8.518;2023-05-24T10:50:52;13.20;99.90
20726;DHT22;10524;48.132;8.518;2023-05-24T10:53:20;13.30;99.90
20726;DHT22;10524;48.132;8.518;2023-05-24T10:56:09;13.10;99.90
20726;DHT22;10524;48.132;8.518;2023-05-24T11:01:29;12.20;99.90
20726;DHT22;10524;48.132;8.518;2023-05-24T11:04:15;12.20;99.90
20726;DHT22;10524;48.132;8.518;2023-05-24T11:06:49;12.50;99.90
20726;DHT22;10524;48.132;8.518;2023-05-24T11:09:18;13.00;99.90
20726;DHT22;10524;48.132;8.518;2023-05-24T11:11:54;13.20;99.90
20726;DHT22;10524;48.132;8.518;2023-05-24T11:16:56;14.00;99.90
20726;DHT22;10524;48.132;8.518;2023-05-24T11:19:49;14.20;99.90
20726;DHT22;10524;48.132;8.518;2023-05-24T11:22:15;14.00;99.90
20726;DHT22;10524;48.132;8.518;2023-05-24T11:24:41;14.00;99.90
20726;DHT22;10524;48.132;8.518;2023-05-24T11:27:09;14.20;99.90
20726;DHT22;10524;48.132;8.518;2023-05-24T11:29:45;14.20;99.90
20726;DHT22;10524;48.132;8.518;2023-05-24T11:32:18;14.10;99.90
20726;DHT22;10524;48.132;8.518;2023-05-24T11:34:48;13.90;99.90
20726;DHT22;10524;48.132;8.518;2023-05-24T11:37:14;13.90;99.90
20726;DHT22;10524;48.132;8.518;2023-05-24T11:39:40;13.90;99.90
20726;DHT22;10524;48.132;8.518;2023-05-24T11:42:07;13.70;99.90
20726;DHT22;10524;48.132;8.518;2023-05-24T11:44:34;13.30;99.90
20726;DHT22;10524;48.132;8.518;2023-05-24T11:47:05;13.00;99.90
20726;DHT22;10524;48.132;8.518;2023-05-24T11:49:31;12.80;99.90
20726;DHT22;10524;48.132;8.518;2023-05-24T11:51:58;13.10;99.90
20726;DHT22;10524;48.132;8.518;2023-05-24T11:54:25;13.30;99.90
20726;DHT22;10524;48.132;8.518;2023-05-24T11:56:52;13.00;99.90
20726;DHT22;10524;48.132;8.518;2023-05-24T12:01:47;13.10;99.90
20726;DHT22;10524;48.132;8.518;2023-05-24T12:04:14;13.00;99.90
20726;DHT22;10524;48.132;8.518;2023-05-24T12:06:41;13.20;99.90
20726;DHT22;10524;48.132;8.518;2023-05-24T12:09:08;13.10;99.90
20726;DHT22;10524;48.132;8.518;2023-05-24T12:11:45;12.80;99.90
20726;DHT22;10524;48.132;8.518;2023-05-24T12:14:18;12.60;99.90
20726;DHT22;10524;48.132;8.518;2023-05-24T12:16:45;12.50;99.90
20726;DHT22;10524;48.132;8.518;2023-05-24T12:19:21;12.30;99.90
20726;DHT22;10524;48.132;8.518;2023-05-24T12:21:50;12.10;99.90
20726;DHT22;10524;48.132;8.518;2023-05-24T12:24:19;12.20;99.90
20726;DHT22;10524;48.132;8.518;2023-05-24T12:26:46;12.30;99.90
20726;DHT22;10524;48.132;8.518;2023-05-24T12:29:13;12.50;99.90
20726;DHT22;10524;48.132;8.518;2023-05-24T12:31:48;12.70;99.90
20726;DHT22;10524;48.132;8.518;2023-05-24T12:34:18;12.70;99.90
20726;DHT22;10524;48.132;8.518;2023-05-24T12:36:44;12.80;99.90
20726;DHT22;10524;48.132;8.518;2023-05-24T12:39:26;12.70;99.90
20726;DHT22;10524;48.132;8.518;2023-05-24T12:42:01;12.80;99.90
20726;DHT22;10524;48.132;8.518;2023-05-24T12:44:37;13.10;99.90
20726;DHT22;10524;48.132;8.518;2023-05-24T12:47:05;13.30;99.90
20726;DHT22;10524;48.132;8.518;2023-05-24T12:49:32;13.70;99.90
20726;DHT22;10524;48.132;8.518;2023-05-24T12:51:57;14.00;99.90
20726;DHT22;10524;48.132;8.518;2023-05-24T12:54:26;14.00;99.90
20726;DHT22;10524;48.132;8.518;2023-05-24T12:56:53;14.40;99.90
20726;DHT22;10524;48.132;8.518;2023-05-24T12:59:19;14.70;99.90
20726;DHT22;10524;48.132;8.518;2023-05-24T13:01:45;14.70;99.90
20726;DHT22;10524;48.132;8.518;2023-05-24T13:04:19;14.60;99.90
20726;DHT22;10524;48.132;8.518;2023-05-24T13:06:45;14.70;99.90
20726;DHT22;10524;48.132;8.518;2023-05-24T13:09:12;14.80;99.90
20726;DHT22;10524;48.132;8.518;2023-05-24T13:11:38;14.70;99.90
20726;DHT22;10524;48.132;8.518;2023-05-24T13:14:04;14.80;99.90
20726;DHT22;10524;48.132;8.518;2023-05-24T13:16:30;14.50;99.90
20726;DHT22;10524;48.132;8.518;2023-05-24T13:18:56;14.80;99.90
20726;DHT22;10524;48.132;8.518;2023-05-24T13:21:21;15.40;99.90
20726;DHT22;10524;48.132;8.518;2023-05-24T13:23:48;17.10;99.90
20726;DHT22;10524;48.132;8.518;2023-05-24T13:26:14;18.30;99.90
20726;DHT22;10524;48.132;8.518;2023-05-24T13:28:39;18.10;99.90
20726;DHT22;10524;48.132;8.518;2023-05-24T13:31:06;18.50;99.90
20726;DHT22;10524;48.132;8.518;2023-05-24T13:33:32;19.30;99.90
20726;DHT22;10524;48.132;8.518;2023-05-24T13:35:58;19.30;99.90
20726;DHT22;10524;48.132;8.518;2023-05-24T13:38:23;18.20;99.90
20726;DHT22;10524;48.132;8.518;2023-05-24T13:40:50;18.40;99.90
20726;DHT22;10524;48.132;8.518;2023-05-24T13:43:18;18.20;99.90
20726;DHT22;10524;48.132;8.518;2023-05-24T13:45:43;17.90;99.90
20726;DHT22;10524;48.132;8.518;2023-05-24T13:48:10;17.60;99.90
20726;DHT22;10524;48.132;8.518;2023-05-24T13:50:36;17.80;99.90
20726;DHT22;10524;48.132;8.518;2023-05-24T13:53:02;17.60;99.90
20726;DHT22;10524;48.132;8.518;2023-05-24T13:55:30;16.60;99.90
20726;DHT22;10524;48.132;8.518;2023-05-24T13:57:56;15.50;99.90
20726;DHT22;10524;48.132;8.518;2023-05-24T14:00:23;15.90;99.90
20726;DHT22;10524;48.132;8.518;2023-05-24T14:02:50;16.60;99.90
20726;DHT22;10524;48.132;8.518;2023-05-24T14:05:16;17.40;99.90
20726;DHT22;10524;48.132;8.518;2023-05-24T14:07:42;18.30;99.90
20726;DHT22;10524;48.132;8.518;2023-05-24T14:10:08;17.00;99.90
20726;DHT22;10524;48.132;8.518;2023-05-24T14:12:34;16.50;99.90
20726;DHT22;10524;48.132;8.518;2023-05-24T14:15:00;17.20;99.90
20726;DHT22;10524;48.132;8.518;2023-05-24T14:17:26;18.70;99.90
20726;DHT22;10524;48.132;8.518;2023-05-24T14:19:52;19.20;99.90
20726;DHT22;10524;48.132;8.518;2023-05-24T14:22:18;19.40;99.90
20726;DHT22;10524;48.132;8.518;2023-05-24T14:24:45;19.80;99.90
20726;DHT22;10524;48.132;8.518;2023-05-24T14:27:10;19.60;99.90
20726;DHT22;10524;48.132;8.518;2023-05-24T14:29:36;19.90;99.90
20726;DHT22;10524;48.132;8.518;2023-05-24T14:32:01;19.30;99.90
20726;DHT22;10524;48.132;8.518;2023-05-24T14:34:27;19.30;99.90
20726;DHT22;10524;48.132;8.518;2023-05-24T14:36:53;19.40;99.90
20726;DHT22;10524;48.132;8.518;2023-05-24T14:39:19;19.20;99.90
20726;DHT22;10524;48.132;8.518;2023-05-24T14:41:44;18.90;99.90
20726;DHT22;10524;48.132;8.518;2023-05-24T14:44:10;19.00;99.90
20726;DHT22;10524;48.132;8.518;2023-05-24T14:46:36;19.20;99.90
20726;DHT22;10524;48.132;8.518;2023-05-24T14:49:02;18.80;99.90
20726;DHT22;10524;48.132;8.518;2023-05-24T14:51:27;17.90;99.90
20726;DHT22;10524;48.132;8.518;2023-05-24T14:53:53;17.80;99.90
20726;DHT22;10524;48.132;8.518;2023-05-24T14:56:18;18.00;99.90
20726;DHT22;10524;48.132;8.518;2023-05-24T14:58:44;18.50;99.90
20726;DHT22;10524;48.132;8.518;2023-05-24T15:01:10;18.20;99.90
20726;DHT22;10524;48.132;8.518;2023-05-24T15:03:35;18.50;99.90
20726;DHT22;10524;48.132;8.518;2023-05-24T15:06:01;18.20;99.90
20726;DHT22;10524;48.132;8.518;2023-05-24T15:08:27;18.10;99.90
20726;DHT22;10524;48.132;8.518;2023-05-24T15:10:53;18.40;99.90
20726;DHT22;10524;48.132;8.518;2023-05-24T15:13:19;17.50;99.90
20726;DHT22;10524;48.132;8.518;2023-05-24T15:15:44;16.90;99.90
20726;DHT22;10524;48.132;8.518;2023-05-24T15:18:10;17.10;99.90
20726;DHT22;10524;48.132;8.518;2023-05-24T15:20:36;17.30;99.90
20726;DHT22;10524;48.132;8.518;2023-05-24T15:23:02;17.40;99.90
20726;DHT22;10524;48.132;8.518;2023-05-24T15:25:28;17.40;99.90
20726;DHT22;10524;48.132;8.518;2023-05-24T15:27:54;17.60;99.90
20726;DHT22;10524;48.132;8.518;2023-05-24T15:30:20;17.70;99.90
20726;DHT22;10524;48.132;8.518;2023-05-24T15:32:48;17.80;99.90
20726;DHT22;10524;48.132;8.518;2023-05-24T15:35:15;17.60;99.90
20726;DHT22;10524;48.132;8.518;2023-05-24T15:37:41;17.30;99.90
20726;DHT22;10524;48.132;8.518;2023-05-24T15:40:08;17.10;99.90
20726;DHT22;10524;48.132;8.518;2023-05-24T15:42:34;17.00;99.90
20726;DHT22;10524;48.132;8.518;2023-05-24T15:45:00;17.70;99.90
20726;DHT22;10524;48.132;8.518;2023-05-24T15:47:26;17.40;99.90
20726;DHT22;10524;48.132;8.518;2023-05-24T15:49:53;17.20;99.90
20726;DHT22;10524;48.132;8.518;2023-05-24T15:52:19;17.70;99.90
20726;DHT22;10524;48.132;8.518;2023-05-24T15:54:45;17.00;99.90
20726;DHT22;10524;48.132;8.518;2023-05-24T15:57:11;16.80;99.90